sensor_id;sensor_type;location;lat;lon;timestamp;pressure;altitude;pressure_sealevel;temperature
49593;BMP280;35499;51.482;4.264;2023-02-12T00:02:02;103921.47;;;7.59
49593;BMP280;35499;51.482;4.264;2023-02-12T00:04:28;103921.47;;;7.59
49593;BMP280;35499;51.482;4.264;2023-02-12T00:06:53;103923.22;;;7.60
49593;BMP280;35499;51.482;4.264;2023-02-12T00:09:18;103922.44;;;7.61
49593;BMP280;35499;51.482;4.264;2023-02-12T00:11:43;103920.66;;;7.60
49593;BMP280;35499;51.482;4.264;2023-02-12T00:14:08;103923.22;;;7.60
49593;BMP280;35499;51.482;4.264;2023-02-12T00:16:34;103915.56;;;7.60
49593;BMP280;35499;51.482;4.264;2023-02-12T00:18:59;103913.00;;;7.60
49593;BMP280;35499;51.482;4.264;2023-02-12T00:21:25;103907.00;;;7.59
49593;BMP280;35499;51.482;4.264;2023-02-12T00:23:50;103899.25;;;7.58
49593;BMP280;35499;51.482;4.264;2023-02-12T00:26:16;103910.34;;;7.58
49593;BMP280;35499;51.482;4.264;2023-02-12T00:28:42;103909.47;;;7.58
49593;BMP280;35499;51.482;4.264;2023-02-12T00:31:09;103910.31;;;7.57
49593;BMP280;35499;51.482;4.264;2023-02-12T00:33:35;103912.78;;;7.55
49593;BMP280;35499;51.482;4.264;2023-02-12T00:36:00;103917.81;;;7.54
49593;BMP280;35499;51.482;4.264;2023-02-12T00:38:25;103916.06;;;7.53
49593;BMP280;35499;51.482;4.264;2023-02-12T00:40:51;103915.19;;;7.52
49593;BMP280;35499;51.482;4.264;2023-02-12T00:43:16;103919.50;;;7.53
49593;BMP280;35499;51.482;4.264;2023-02-12T00:45:43;103911.84;;;7.53
49593;BMP280;35499;51.482;4.264;2023-02-12T00:48:08;103917.81;;;7.54
49593;BMP280;35499;51.482;4.264;2023-02-12T00:50:33;103908.47;;;7.54
49593;BMP280;35499;51.482;4.264;2023-02-12T00:52:58;103909.34;;;7.55
49593;BMP280;35499;51.482;4.264;2023-02-12T00:55:24;103912.72;;;7.54
49593;BMP280;35499;51.482;4.264;2023-02-12T00:57:49;103912.72;;;7.54
49593;BMP280;35499;51.482;4.264;2023-02-12T01:00:14;103912.72;;;7.54
49593;BMP280;35499;51.482;4.264;2023-02-12T01:02:40;103913.59;;;7.54
49593;BMP280;35499;51.482;4.264;2023-02-12T01:05:05;103918.00;;;7.57
49593;BMP280;35499;51.482;4.264;2023-02-12T01:07:30;103920.59;;;7.58
49593;BMP280;35499;51.482;4.264;2023-02-12T01:09:55;103918.00;;;7.57
49593;BMP280;35499;51.482;4.264;2023-02-12T01:12:21;103919.66;;;7.56
49593;BMP280;35499;51.482;4.264;2023-02-12T01:14:46;103921.34;;;7.56
49593;BMP280;35499;51.482;4.264;2023-02-12T01:17:11;103922.16;;;7.55
49593;BMP280;35499;51.482;4.264;2023-02-12T01:19:36;103915.25;;;7.54
49593;BMP280;35499;51.482;4.264;2023-02-12T01:22:02;103922.16;;;7.55
49593;BMP280;35499;51.482;4.264;2023-02-12T01:24:27;103918.63;;;7.53
49593;BMP280;35499;51.482;4.264;2023-02-12T01:26:52;103918.56;;;7.51
49593;BMP280;35499;51.482;4.264;2023-02-12T01:29:17;103922.06;;;7.53
49593;BMP280;35499;51.482;4.264;2023-02-12T01:31:43;103919.50;;;7.53
49593;BMP280;35499;51.482;4.264;2023-02-12T01:34:08;103922.16;;;7.55
49593;BMP280;35499;51.482;4.264;2023-02-12T01:36:34;103920.47;;;7.55
49593;BMP280;35499;51.482;4.264;2023-02-12T01:38:59;103924.69;;;7.55
49593;BMP280;35499;51.482;4.264;2023-02-12T01:41:27;103919.59;;;7.55
49593;BMP280;35499;51.482;4.264;2023-02-12T01:44:04;103918.00;;;7.57
49593;BMP280;35499;51.482;4.264;2023-02-12T01:46:29;103918.81;;;7.57
49593;BMP280;35499;51.482;4.264;2023-02-12T01:48:55;103928.34;;;7.60
49593;BMP280;35499;51.482;4.264;2023-02-12T01:51:20;103924.91;;;7.59
49593;BMP280;35499;51.482;4.264;2023-02-12T01:53:47;103927.38;;;7.58
49593;BMP280;35499;51.482;4.264;2023-02-12T01:56:13;103918.78;;;7.56
49593;BMP280;35499;51.482;4.264;2023-02-12T01:58:40;103918.00;;;7.57
49593;BMP280;35499;51.482;4.264;2023-02-12T02:01:07;103917.81;;;7.54
49593;BMP280;35499;51.482;4.264;2023-02-12T02:03:33;103916.94;;;7.53
49593;BMP280;35499;51.482;4.264;2023-02-12T02:06:00;103918.63;;;7.53
49593;BMP280;35499;51.482;4.264;2023-02-12T02:08:26;103921.25;;;7.54
49593;BMP280;35499;51.482;4.264;2023-02-12T02:10:51;103917.81;;;7.54
49593;BMP280;35499;51.482;4.264;2023-02-12T02:13:17;103920.31;;;7.52
49593;BMP280;35499;51.482;4.264;2023-02-12T02:16:04;103910.91;;;7.51
49593;BMP280;35499;51.482;4.264;2023-02-12T02:19:07;103913.47;;;7.51
49593;BMP280;35499;51.482;4.264;2023-02-12T02:23:51;103917.69;;;7.51
49593;BMP280;35499;51.482;4.264;2023-02-12T02:28:59;103925.66;;;7.57
49593;BMP280;35499;51.482;4.264;2023-02-12T02:31:29;103914.53;;;7.56
49593;BMP280;35499;51.482;4.264;2023-02-12T02:34:02;103912.72;;;7.54
49593;BMP280;35499;51.482;4.264;2023-02-12T02:36:36;103912.63;;;7.52
49593;BMP280;35499;51.482;4.264;2023-02-12T02:44:09;103908.47;;;7.54
49593;BMP280;35499;51.482;4.264;2023-02-12T02:46:39;103904.31;;;7.56
49593;BMP280;35499;51.482;4.264;2023-02-12T02:49:07;103906.00;;;7.56
49593;BMP280;35499;51.482;4.264;2023-02-12T02:51:36;103911.22;;;7.59
49593;BMP280;35499;51.482;4.264;2023-02-12T02:54:08;103911.22;;;7.59
49593;BMP280;35499;51.482;4.264;2023-02-12T02:56:36;103906.13;;;7.59
49593;BMP280;35499;51.482;4.264;2023-02-12T02:59:45;103911.22;;;7.59
49593;BMP280;35499;51.482;4.264;2023-02-12T03:01:52;103900.13;;;7.58
49593;BMP280;35499;51.482;4.264;2023-02-12T03:04:20;103901.00;;;7.59
49593;BMP280;35499;51.482;4.264;2023-02-12T03:09:37;103897.78;;;7.63
49593;BMP280;35499;51.482;4.264;2023-02-12T03:12:05;103896.97;;;7.64
49593;BMP280;35499;51.482;4.264;2023-02-12T03:14:32;103897.94;;;7.66
49593;BMP280;35499;51.482;4.264;2023-02-12T03:17:02;103893.63;;;7.65
49593;BMP280;35499;51.482;4.264;2023-02-12T03:19:29;103890.19;;;7.64
49593;BMP280;35499;51.482;4.264;2023-02-12T03:24:23;103886.63;;;7.61
49593;BMP280;35499;51.482;4.264;2023-02-12T03:26:59;103889.00;;;7.58
49593;BMP280;35499;51.482;4.264;2023-02-12T03:29:27;103886.25;;;7.53
49593;BMP280;35499;51.482;4.264;2023-02-12T03:32:04;103885.25;;;7.50
49593;BMP280;35499;51.482;4.264;2023-02-12T03:34:36;103888.47;;;7.46
49593;BMP280;35499;51.482;4.264;2023-02-12T03:37:06;103880.59;;;7.42
49593;BMP280;35499;51.482;4.264;2023-02-12T03:39:43;103892.44;;;7.40
49593;BMP280;35499;51.482;4.264;2023-02-12T03:42:17;103884.63;;;7.37
49593;BMP280;35499;51.482;4.264;2023-02-12T03:44:46;103887.91;;;7.34
49593;BMP280;35499;51.482;4.264;2023-02-12T03:47:23;103886.16;;;7.33
49593;BMP280;35499;51.482;4.264;2023-02-12T03:49:54;103885.25;;;7.33
49593;BMP280;35499;51.482;4.264;2023-02-12T03:52:23;103886.16;;;7.33
49593;BMP280;35499;51.482;4.264;2023-02-12T03:54:48;103887.91;;;7.34
49593;BMP280;35499;51.482;4.264;2023-02-12T03:57:18;103885.25;;;7.33
49593;BMP280;35499;51.482;4.264;2023-02-12T03:59:45;103892.06;;;7.32
49593;BMP280;35499;51.482;4.264;2023-02-12T04:02:11;103892.91;;;7.32
49593;BMP280;35499;51.482;4.264;2023-02-12T04:04:36;103898.81;;;7.31
49593;BMP280;35499;51.482;4.264;2023-02-12T04:07:02;103907.19;;;7.28
49593;BMP280;35499;51.482;4.264;2023-02-12T04:09:27;103907.16;;;7.27
49593;BMP280;35499;51.482;4.264;2023-02-12T04:22:14;103910.28;;;7.21
49593;BMP280;35499;51.482;4.264;2023-02-12T04:24:49;103914.53;;;7.21
49593;BMP280;35499;51.482;4.264;2023-02-12T04:27:25;103913.63;;;7.20
49593;BMP280;35499;51.482;4.264;2023-02-12T04:30:03;103921.22;;;7.19
49593;BMP280;35499;51.482;4.264;2023-02-12T04:35:04;103922.03;;;7.18
49593;BMP280;35499;51.482;4.264;2023-02-12T04:37:33;103919.47;;;7.18
49593;BMP280;35499;51.482;4.264;2023-02-12T04:40:02;103923.66;;;7.16
49593;BMP280;35499;51.482;4.264;2023-02-12T04:42:28;103929.56;;;7.15
49593;BMP280;35499;51.482;4.264;2023-02-12T04:44:53;103931.31;;;7.16
49593;BMP280;35499;51.482;4.264;2023-02-12T04:47:18;103933.78;;;7.14
49593;BMP280;35499;51.482;4.264;2023-02-12T04:49:43;103931.25;;;7.14
49593;BMP280;35499;51.482;4.264;2023-02-12T04:52:08;103941.53;;;7.16
49593;BMP280;35499;51.482;4.264;2023-02-12T04:54:34;103936.44;;;7.16
49593;BMP280;35499;51.482;4.264;2023-02-12T04:56:59;103938.19;;;7.17
49593;BMP280;35499;51.482;4.264;2023-02-12T04:59:25;103934.75;;;7.16
49593;BMP280;35499;51.482;4.264;2023-02-12T05:01:50;103938.19;;;7.17
49593;BMP280;35499;51.482;4.264;2023-02-12T05:04:16;103933.91;;;7.17
49593;BMP280;35499;51.482;4.264;2023-02-12T05:06:41;103929.56;;;7.15
49593;BMP280;35499;51.482;4.264;2023-02-12T05:09:07;103925.25;;;7.14
49593;BMP280;35499;51.482;4.264;2023-02-12T05:11:32;103924.31;;;7.12
49593;BMP280;35499;51.482;4.264;2023-02-12T05:13:58;103920.78;;;7.10
49593;BMP280;35499;51.482;4.264;2023-02-12T05:16:23;103925.03;;;7.10
49593;BMP280;35499;51.482;4.264;2023-02-12T05:18:48;103925.03;;;7.10
49593;BMP280;35499;51.482;4.264;2023-02-12T05:21:14;103925.91;;;7.10
49593;BMP280;35499;51.482;4.264;2023-02-12T05:23:39;103926.78;;;7.11
49593;BMP280;35499;51.482;4.264;2023-02-12T05:26:06;103926.78;;;7.11
49593;BMP280;35499;51.482;4.264;2023-02-12T05:28:32;103922.59;;;7.13
49593;BMP280;35499;51.482;4.264;2023-02-12T05:30:58;103920.03;;;7.13
49593;BMP280;35499;51.482;4.264;2023-02-12T05:33:24;103920.03;;;7.13
49593;BMP280;35499;51.482;4.264;2023-02-12T05:35:49;103920.94;;;7.13
49593;BMP280;35499;51.482;4.264;2023-02-12T05:38:14;103924.31;;;7.12
49593;BMP280;35499;51.482;4.264;2023-02-12T05:40:39;103927.66;;;7.11
49593;BMP280;35499;51.482;4.264;2023-02-12T05:43:07;103926.72;;;7.09
49593;BMP280;35499;51.482;4.264;2023-02-12T05:45:32;103922.38;;;7.08
49593;BMP280;35499;51.482;4.264;2023-02-12T05:47:57;103925.78;;;7.07
49593;BMP280;35499;51.482;4.264;2023-02-12T05:50:22;103925.78;;;7.07
49593;BMP280;35499;51.482;4.264;2023-02-12T05:52:47;103925.78;;;7.07
49593;BMP280;35499;51.482;4.264;2023-02-12T05:55:13;103927.44;;;7.07
49593;BMP280;35499;51.482;4.264;2023-02-12T05:57:38;103934.25;;;7.06
49593;BMP280;35499;51.482;4.264;2023-02-12T06:00:05;103929.19;;;7.08
49593;BMP280;35499;51.482;4.264;2023-02-12T06:02:32;103938.59;;;7.09
49593;BMP280;35499;51.482;4.264;2023-02-12T06:04:57;103934.38;;;7.09
49593;BMP280;35499;51.482;4.264;2023-02-12T06:07:22;103936.13;;;7.10
49593;BMP280;35499;51.482;4.264;2023-02-12T06:09:48;103930.13;;;7.10
49593;BMP280;35499;51.482;4.264;2023-02-12T06:12:13;103936.06;;;7.09
49593;BMP280;35499;51.482;4.264;2023-02-12T06:14:39;103937.81;;;7.10
49593;BMP280;35499;51.482;4.264;2023-02-12T06:17:04;103934.38;;;7.09
49593;BMP280;35499;51.482;4.264;2023-02-12T06:19:29;103939.47;;;7.09
49593;BMP280;35499;51.482;4.264;2023-02-12T06:21:55;103936.94;;;7.09
49593;BMP280;35499;51.482;4.264;2023-02-12T06:24:20;103941.16;;;7.09
49593;BMP280;35499;51.482;4.264;2023-02-12T06:26:47;103942.84;;;7.08
49593;BMP280;35499;51.482;4.264;2023-02-12T06:29:13;103944.59;;;7.09
49593;BMP280;35499;51.482;4.264;2023-02-12T06:31:38;103934.38;;;7.09
49593;BMP280;35499;51.482;4.264;2023-02-12T06:34:05;103937.91;;;7.11
49593;BMP280;35499;51.482;4.264;2023-02-12T06:36:30;103940.50;;;7.13
49593;BMP280;35499;51.482;4.264;2023-02-12T06:38:55;103936.25;;;7.13
49593;BMP280;35499;51.482;4.264;2023-02-12T06:41:21;103937.16;;;7.14
49593;BMP280;35499;51.482;4.264;2023-02-12T06:43:46;103938.91;;;7.14
49593;BMP280;35499;51.482;4.264;2023-02-12T06:46:12;103943.13;;;7.14
49593;BMP280;35499;51.482;4.264;2023-02-12T06:48:37;103939.78;;;7.15
49593;BMP280;35499;51.482;4.264;2023-02-12T06:53:31;103946.56;;;7.14
49593;BMP280;35499;51.482;4.264;2023-02-12T06:55:58;103945.69;;;7.14
49593;BMP280;35499;51.482;4.264;2023-02-12T06:58:23;103954.25;;;7.14
49593;BMP280;35499;51.482;4.264;2023-02-12T07:00:49;103943.13;;;7.14
49593;BMP280;35499;51.482;4.264;2023-02-12T07:03:14;103955.91;;;7.14
49593;BMP280;35499;51.482;4.264;2023-02-12T07:05:39;103955.13;;;7.15
49593;BMP280;35499;51.482;4.264;2023-02-12T07:08:04;103964.59;;;7.17
49593;BMP280;35499;51.482;4.264;2023-02-12T07:10:30;103966.31;;;7.17
49593;BMP280;35499;51.482;4.264;2023-02-12T07:12:55;103967.09;;;7.16
49593;BMP280;35499;51.482;4.264;2023-02-12T07:15:20;103967.09;;;7.16
49593;BMP280;35499;51.482;4.264;2023-02-12T07:17:45;103964.56;;;7.16
49593;BMP280;35499;51.482;4.264;2023-02-12T07:20:10;103972.22;;;7.16
49593;BMP280;35499;51.482;4.264;2023-02-12T07:22:36;103974.69;;;7.14
49593;BMP280;35499;51.482;4.264;2023-02-12T07:25:01;103966.94;;;7.13
49593;BMP280;35499;51.482;4.264;2023-02-12T07:27:26;103981.41;;;7.13
49593;BMP280;35499;51.482;4.264;2023-02-12T07:29:52;103981.41;;;7.13
49593;BMP280;35499;51.482;4.264;2023-02-12T07:32:17;103985.66;;;7.12
49593;BMP280;35499;51.482;4.264;2023-02-12T07:34:42;103982.28;;;7.13
49593;BMP280;35499;51.482;4.264;2023-02-12T07:37:07;103986.59;;;7.14
49593;BMP280;35499;51.482;4.264;2023-02-12T07:39:33;103987.59;;;7.17
49593;BMP280;35499;51.482;4.264;2023-02-12T07:41:58;103985.13;;;7.19
49593;BMP280;35499;51.482;4.264;2023-02-12T07:44:23;103992.97;;;7.22
49593;BMP280;35499;51.482;4.264;2023-02-12T07:46:48;103984.47;;;7.23
49593;BMP280;35499;51.482;4.264;2023-02-12T07:49:18;103982.00;;;7.24
49593;BMP280;35499;51.482;4.264;2023-02-12T07:51:43;103984.63;;;7.26
49593;BMP280;35499;51.482;4.264;2023-02-12T07:54:09;103984.75;;;7.29
49593;BMP280;35499;51.482;4.264;2023-02-12T07:56:35;103989.97;;;7.30
49593;BMP280;35499;51.482;4.264;2023-02-12T07:59:02;103994.28;;;7.31
49593;BMP280;35499;51.482;4.264;2023-02-12T08:01:29;103994.41;;;7.34
49593;BMP280;35499;51.482;4.264;2023-02-12T08:03:58;103996.25;;;7.36
49593;BMP280;35499;51.482;4.264;2023-02-12T08:06:25;103992.94;;;7.39
49593;BMP280;35499;51.482;4.264;2023-02-12T08:08:51;104000.72;;;7.40
49593;BMP280;35499;51.482;4.264;2023-02-12T08:11:16;103997.47;;;7.44
49593;BMP280;35499;51.482;4.264;2023-02-12T08:13:42;103996.81;;;7.48
49593;BMP280;35499;51.482;4.264;2023-02-12T08:16:09;103999.53;;;7.51
49593;BMP280;35499;51.482;4.264;2023-02-12T08:18:34;104005.66;;;7.54
49593;BMP280;35499;51.482;4.264;2023-02-12T08:21:00;103995.56;;;7.57
49593;BMP280;35499;51.482;4.264;2023-02-12T08:23:26;103998.22;;;7.59
49593;BMP280;35499;51.482;4.264;2023-02-12T08:25:51;104001.78;;;7.62
49593;BMP280;35499;51.482;4.264;2023-02-12T08:28:16;103996.75;;;7.64
49593;BMP280;35499;51.482;4.264;2023-02-12T08:30:42;104004.56;;;7.67
49593;BMP280;35499;51.482;4.264;2023-02-12T08:33:07;104011.59;;;7.70
49593;BMP280;35499;51.482;4.264;2023-02-12T08:35:32;104002.28;;;7.72
49593;BMP280;35499;51.482;4.264;2023-02-12T08:37:57;104005.78;;;7.74
49593;BMP280;35499;51.482;4.264;2023-02-12T08:40:22;104004.19;;;7.76
49593;BMP280;35499;51.482;4.264;2023-02-12T08:42:48;104008.47;;;7.77
49593;BMP280;35499;51.482;4.264;2023-02-12T08:45:13;104006.09;;;7.80
49593;BMP280;35499;51.482;4.264;2023-02-12T08:47:38;104003.66;;;7.83
49593;BMP280;35499;51.482;4.264;2023-02-12T08:50:03;104008.94;;;7.86
49593;BMP280;35499;51.482;4.264;2023-02-12T08:52:29;103999.63;;;7.88
49593;BMP280;35499;51.482;4.264;2023-02-12T08:54:54;104000.59;;;7.90
49593;BMP280;35499;51.482;4.264;2023-02-12T08:57:19;104004.16;;;7.93
49593;BMP280;35499;51.482;4.264;2023-02-12T08:59:44;103998.22;;;7.94
49593;BMP280;35499;51.482;4.264;2023-02-12T09:02:09;104007.75;;;7.97
49593;BMP280;35499;51.482;4.264;2023-02-12T09:04:35;104013.81;;;7.99
49593;BMP280;35499;51.482;4.264;2023-02-12T09:07:00;104011.34;;;8.00
49593;BMP280;35499;51.482;4.264;2023-02-12T09:09:25;104010.59;;;8.03
49593;BMP280;35499;51.482;4.264;2023-02-12T09:11:50;104006.44;;;8.04
49593;BMP280;35499;51.482;4.264;2023-02-12T09:14:16;104023.59;;;8.07
49593;BMP280;35499;51.482;4.264;2023-02-12T09:16:43;104016.00;;;8.08
49593;BMP280;35499;51.482;4.264;2023-02-12T09:19:09;104016.06;;;8.10
49593;BMP280;35499;51.482;4.264;2023-02-12T09:21:35;104015.28;;;8.11
49593;BMP280;35499;51.482;4.264;2023-02-12T09:24:01;104024.72;;;8.12
49593;BMP280;35499;51.482;4.264;2023-02-12T09:26:27;104022.28;;;8.15
49593;BMP280;35499;51.482;4.264;2023-02-12T09:28:52;104019.03;;;8.19
49593;BMP280;35499;51.482;4.264;2023-02-12T09:31:19;104017.44;;;8.21
49593;BMP280;35499;51.482;4.264;2023-02-12T09:33:47;104027.88;;;8.25
49593;BMP280;35499;51.482;4.264;2023-02-12T09:36:13;104030.56;;;8.28
49593;BMP280;35499;51.482;4.264;2023-02-12T09:38:39;104029.09;;;8.33
49593;BMP280;35499;51.482;4.264;2023-02-12T09:43:35;104032.81;;;8.39
49593;BMP280;35499;51.482;4.264;2023-02-12T09:46:13;104037.19;;;8.41
49593;BMP280;35499;51.482;4.264;2023-02-12T09:51:06;104028.97;;;8.48
49593;BMP280;35499;51.482;4.264;2023-02-12T09:53:33;104035.03;;;8.50
49593;BMP280;35499;51.482;4.264;2023-02-12T09:55:59;104031.72;;;8.53
49593;BMP280;35499;51.482;4.264;2023-02-12T10:04:34;104036.59;;;8.65
49593;BMP280;35499;51.482;4.264;2023-02-12T10:07:01;104034.13;;;8.68
49593;BMP280;35499;51.482;4.264;2023-02-12T10:09:35;104027.53;;;8.73
49593;BMP280;35499;51.482;4.264;2023-02-12T10:12:15;104032.84;;;8.77
49593;BMP280;35499;51.482;4.264;2023-02-12T10:17:15;104039.88;;;8.81
49593;BMP280;35499;51.482;4.264;2023-02-12T10:22:17;104039.03;;;8.82
49593;BMP280;35499;51.482;4.264;2023-02-12T10:24:51;104041.75;;;8.85
49593;BMP280;35499;51.482;4.264;2023-02-12T10:27:24;104031.63;;;8.88
49593;BMP280;35499;51.482;4.264;2023-02-12T10:29:55;104036.06;;;8.92
49593;BMP280;35499;51.482;4.264;2023-02-12T10:32:24;104029.38;;;8.95
49593;BMP280;35499;51.482;4.264;2023-02-12T10:34:51;104032.16;;;9.00
49593;BMP280;35499;51.482;4.264;2023-02-12T10:37:22;104032.41;;;9.06
49593;BMP280;35499;51.482;4.264;2023-02-12T10:39:56;104031.81;;;9.12
49593;BMP280;35499;51.482;4.264;2023-02-12T10:44:53;104021.91;;;9.20
49593;BMP280;35499;51.482;4.264;2023-02-12T10:47:19;104033.03;;;9.20
49593;BMP280;35499;51.482;4.264;2023-02-12T10:49:47;104029.66;;;9.21
49593;BMP280;35499;51.482;4.264;2023-02-12T10:52:17;104017.75;;;9.23
49593;BMP280;35499;51.482;4.264;2023-02-12T10:54:46;104019.53;;;9.24
49593;BMP280;35499;51.482;4.264;2023-02-12T10:59:38;104029.22;;;9.31
49593;BMP280;35499;51.482;4.264;2023-02-12T11:02:04;104021.63;;;9.34
49593;BMP280;35499;51.482;4.264;2023-02-12T11:04:40;104013.22;;;9.36
49593;BMP280;35499;51.482;4.264;2023-02-12T11:07:06;104015.00;;;9.39
49593;BMP280;35499;51.482;4.264;2023-02-12T11:09:42;104022.81;;;9.42
49593;BMP280;35499;51.482;4.264;2023-02-12T11:12:30;104022.16;;;9.46
49593;BMP280;35499;51.482;4.264;2023-02-12T11:14:59;104011.88;;;9.46
49593;BMP280;35499;51.482;4.264;2023-02-12T11:17:26;104013.59;;;9.47
49593;BMP280;35499;51.482;4.264;2023-02-12T11:20:02;104011.09;;;9.48
49593;BMP280;35499;51.482;4.264;2023-02-12T11:22:29;104012.97;;;9.52
49593;BMP280;35499;51.482;4.264;2023-02-12T11:24:59;104010.63;;;9.56
49593;BMP280;35499;51.482;4.264;2023-02-12T11:27:25;103999.50;;;9.57
49593;BMP280;35499;51.482;4.264;2023-02-12T11:32:37;104010.84;;;9.62
49593;BMP280;35499;51.482;4.264;2023-02-12T11:35:09;104015.06;;;9.60
49593;BMP280;35499;51.482;4.264;2023-02-12T11:43:57;103945.22;;;20.01
49593;BMP280;35499;51.482;4.264;2023-02-12T11:48:15;103988.72;;;11.50
49593;BMP280;35499;51.482;4.264;2023-02-12T11:50:46;103993.47;;;10.65
49593;BMP280;35499;51.482;4.264;2023-02-12T11:53:23;103993.69;;;10.48
49593;BMP280;35499;51.482;4.264;2023-02-12T11:55:55;103989.88;;;10.37
49593;BMP280;35499;51.482;4.264;2023-02-12T11:58:23;103987.03;;;10.30
49593;BMP280;35499;51.482;4.264;2023-02-12T12:01:13;103982.41;;;10.22
49593;BMP280;35499;51.482;4.264;2023-02-12T12:09:17;103978.00;;;10.18
49593;BMP280;35499;51.482;4.264;2023-02-12T12:14:38;103976.25;;;10.17
49593;BMP280;35499;51.482;4.264;2023-02-12T12:17:44;103972.78;;;10.17
49593;BMP280;35499;51.482;4.264;2023-02-12T12:20:35;103973.75;;;10.19
49593;BMP280;35499;51.482;4.264;2023-02-12T12:23:15;103962.75;;;10.22
49593;BMP280;35499;51.482;4.264;2023-02-12T12:25:46;103969.88;;;10.29
49593;BMP280;35499;51.482;4.264;2023-02-12T12:28:44;103958.97;;;10.36
49593;BMP280;35499;51.482;4.264;2023-02-12T12:31:18;103959.19;;;10.42
49593;BMP280;35499;51.482;4.264;2023-02-12T12:41:46;103943.78;;;10.42
49593;BMP280;35499;51.482;4.264;2023-02-12T12:44:42;103945.66;;;10.46
49593;BMP280;35499;51.482;4.264;2023-02-12T12:47:23;103942.28;;;10.48
49593;BMP280;35499;51.482;4.264;2023-02-12T12:49:58;103945.75;;;10.49
49593;BMP280;35499;51.482;4.264;2023-02-12T12:55:15;103939.47;;;10.41
49593;BMP280;35499;51.482;4.264;2023-02-12T13:09:23;103926.34;;;10.34
49593;BMP280;35499;51.482;4.264;2023-02-12T13:17:22;103919.59;;;10.37
49593;BMP280;35499;51.482;4.264;2023-02-12T13:20:10;103912.03;;;10.40
49593;BMP280;35499;51.482;4.264;2023-02-12T13:23:11;103909.47;;;10.40
49593;BMP280;35499;51.482;4.264;2023-02-12T13:26:00;103905.94;;;10.38
49593;BMP280;35499;51.482;4.264;2023-02-12T13:28:43;103897.41;;;10.39
49593;BMP280;35499;51.482;4.264;2023-02-12T13:31:14;103899.38;;;10.46
49593;BMP280;35499;51.482;4.264;2023-02-12T13:33:43;103900.44;;;10.52
49593;BMP280;35499;51.482;4.264;2023-02-12T13:36:12;103890.28;;;10.55
49593;BMP280;35499;51.482;4.264;2023-02-12T13:38:42;103884.28;;;10.55
49593;BMP280;35499;51.482;4.264;2023-02-12T13:41:10;103881.72;;;10.56
49593;BMP280;35499;51.482;4.264;2023-02-12T13:46:30;103887.97;;;10.62
49593;BMP280;35499;51.482;4.264;2023-02-12T13:49:08;103877.59;;;10.59
49593;BMP280;35499;51.482;4.264;2023-02-12T13:51:47;103879.34;;;10.60
49593;BMP280;35499;51.482;4.264;2023-02-12T13:54:28;103875.03;;;10.59
49593;BMP280;35499;51.482;4.264;2023-02-12T13:56:59;103876.56;;;10.55
49593;BMP280;35499;51.482;4.264;2023-02-12T14:01:58;103867.19;;;10.56
49593;BMP280;35499;51.482;4.264;2023-02-12T14:04:27;103862.91;;;10.55
49593;BMP280;35499;51.482;4.264;2023-02-12T14:06:59;103857.75;;;10.55
49593;BMP280;35499;51.482;4.264;2023-02-12T14:12:04;103863.06;;;10.61
49593;BMP280;35499;51.482;4.264;2023-02-12T14:14:48;103858.88;;;10.63
49593;BMP280;35499;51.482;4.264;2023-02-12T14:20:30;103858.94;;;10.66
49593;BMP280;35499;51.482;4.264;2023-02-12T14:25:39;103847.03;;;10.68
49593;BMP280;35499;51.482;4.264;2023-02-12T14:28:17;103853.78;;;10.65
49593;BMP280;35499;51.482;4.264;2023-02-12T14:34:35;103845.19;;;10.64
49593;BMP280;35499;51.482;4.264;2023-02-12T14:41:52;103852.63;;;10.57
49593;BMP280;35499;51.482;4.264;2023-02-12T14:46:55;103855.06;;;10.53
49593;BMP280;35499;51.482;4.264;2023-02-12T14:49:39;103848.81;;;10.45
49593;BMP280;35499;51.482;4.264;2023-02-12T14:54:45;103850.22;;;10.37
49593;BMP280;35499;51.482;4.264;2023-02-12T14:59:58;103849.19;;;10.32
49593;BMP280;35499;51.482;4.264;2023-02-12T15:02:28;103847.44;;;10.31
49593;BMP280;35499;51.482;4.264;2023-02-12T15:05:03;103850.88;;;10.30
49593;BMP280;35499;51.482;4.264;2023-02-12T15:07:38;103852.50;;;10.28
49593;BMP280;35499;51.482;4.264;2023-02-12T15:10:12;103849.00;;;10.26
49593;BMP280;35499;51.482;4.264;2023-02-12T15:12:46;103845.44;;;10.23
49593;BMP280;35499;51.482;4.264;2023-02-12T15:15:26;103835.91;;;10.19
49593;BMP280;35499;51.482;4.264;2023-02-12T15:18:01;103840.06;;;10.16
49593;BMP280;35499;51.482;4.264;2023-02-12T15:20:43;103833.06;;;10.12
49593;BMP280;35499;51.482;4.264;2023-02-12T15:23:43;103838.03;;;10.07
49593;BMP280;35499;51.482;4.264;2023-02-12T15:26:17;103840.50;;;10.04
49593;BMP280;35499;51.482;4.264;2023-02-12T15:28:48;103838.66;;;10.01
49593;BMP280;35499;51.482;4.264;2023-02-12T15:31:15;103831.63;;;9.95
49593;BMP280;35499;51.482;4.264;2023-02-12T15:33:46;103838.94;;;9.85
49593;BMP280;35499;51.482;4.264;2023-02-12T15:36:16;103831.63;;;9.74
49593;BMP280;35499;51.482;4.264;2023-02-12T15:38:42;103842.50;;;9.67
49593;BMP280;35499;51.482;4.264;2023-02-12T15:41:08;103839.59;;;9.58
49593;BMP280;35499;51.482;4.264;2023-02-12T15:43:47;103831.66;;;9.52
49593;BMP280;35499;51.482;4.264;2023-02-12T15:46:16;103832.38;;;9.48
49593;BMP280;35499;51.482;4.264;2023-02-12T15:48:42;103828.94;;;9.48
49593;BMP280;35499;51.482;4.264;2023-02-12T15:51:27;103835.72;;;9.46
49593;BMP280;35499;51.482;4.264;2023-02-12T15:53:54;103825.25;;;9.42
49593;BMP280;35499;51.482;4.264;2023-02-12T15:56:22;103832.03;;;9.40
49593;BMP280;35499;51.482;4.264;2023-02-12T15:58:56;103826.75;;;9.35
49593;BMP280;35499;51.482;4.264;2023-02-12T16:01:33;103830.88;;;9.32
49593;BMP280;35499;51.482;4.264;2023-02-12T16:04:04;103829.06;;;9.29
49593;BMP280;35499;51.482;4.264;2023-02-12T16:06:33;103829.81;;;9.27
49593;BMP280;35499;51.482;4.264;2023-02-12T16:09:05;103831.47;;;9.25
49593;BMP280;35499;51.482;4.264;2023-02-12T16:11:31;103827.22;;;9.26
49593;BMP280;35499;51.482;4.264;2023-02-12T16:14:00;103824.66;;;9.26
49593;BMP280;35499;51.482;4.264;2023-02-12T16:16:28;103822.84;;;9.23
49593;BMP280;35499;51.482;4.264;2023-02-12T16:21:58;103824.41;;;9.20
49593;BMP280;35499;51.482;4.264;2023-02-12T16:24:32;103820.97;;;9.19
49593;BMP280;35499;51.482;4.264;2023-02-12T16:27:06;103814.09;;;9.18
49593;BMP280;35499;51.482;4.264;2023-02-12T16:29:36;103820.91;;;9.18